Time;durP1;ratioP1;P1;durP2;ratioP2;P2;SDS_P1;SDS_P2;PMS_P1;PMS_P2;Temp;Humidity;BMP_temperature;BMP_pressure;BME280_temperature;BME280_humidity;BME280_pressure;Samples;Min_cycle;Max_cycle;Signal;HPM_P1;HPM_P2
2022/10/04 00:02:14;;;;;;;11.83;6.80;;;-17.00;99.90;;;;;;5042695;28;20219;-77
2022/10/04 00:05:02;;;;;;;12.97;8.23;;;-16.20;99.90;;;;;;5025755;28;20276;-75
2022/10/04 00:07:48;;;;;;;8.47;7.33;;;-17.20;99.90;;;;;;5030674;28;20471;-72
2022/10/04 00:10:17;;;;;;;7.13;6.53;;;-17.40;99.90;;;;;;5049357;28;20198;-72
2022/10/04 00:12:52;;;;;;;7.80;6.63;;;-16.00;99.90;;;;;;5042621;28;20195;-70
2022/10/04 00:15:46;;;;;;;7.77;6.97;;;-17.90;99.90;;;;;;5031273;28;20215;-71
2022/10/04 00:18:22;;;;;;;10.53;6.80;;;-18.10;99.90;;;;;;5023136;28;20649;-72
2022/10/04 00:20:57;;;;;;;8.47;6.20;;;-17.50;99.90;;;;;;5031980;28;20179;-77
2022/10/04 00:23:23;;;;;;;13.07;6.00;;;-16.80;99.90;;;;;;5035512;28;20547;-71
2022/10/04 00:25:55;;;;;;;7.10;6.40;;;-17.80;99.90;;;;;;5050313;28;20185;-69
2022/10/04 00:28:20;;;;;;;10.70;7.20;;;-17.00;99.90;;;;;;5028594;28;20862;-68
2022/10/04 00:31:08;;;;;;;8.37;5.67;;;-16.90;99.90;;;;;;5028183;28;20182;-73
2022/10/04 00:33:47;;;;;;;7.20;6.57;;;-17.90;99.90;;;;;;5021839;28;20191;-72
2022/10/04 00:36:24;;;;;;;8.77;7.37;;;-18.50;99.90;;;;;;5021260;28;20191;-70
2022/10/04 00:39:09;;;;;;;10.13;6.80;;;-18.00;99.90;;;;;;5026321;28;20184;-69
2022/10/04 00:41:47;;;;;;;8.17;6.20;;;-17.00;99.90;;;;;;5046690;28;20217;-79
2022/10/04 00:44:18;;;;;;;8.20;5.83;;;-17.10;99.90;;;;;;5039272;28;20180;-72
2022/10/04 00:46:47;;;;;;;13.10;6.80;;;-18.50;99.90;;;;;;5034496;28;20591;-78
2022/10/04 00:49:16;;;;;;;8.60;6.17;;;-19.00;99.90;;;;;;5033611;28;20254;-72
2022/10/04 00:52:18;;;;;;;8.27;6.47;;;-19.70;99.90;;;;;;5021038;28;20591;-75
2022/10/04 00:55:08;;;;;;;9.20;5.83;;;-17.40;99.90;;;;;;5020125;28;20192;-73
2022/10/04 00:57:43;;;;;;;7.63;6.00;;;-17.50;99.90;;;;;;5025333;28;20534;-72
2022/10/04 01:00:18;;;;;;;10.10;6.07;;;-19.30;99.90;;;;;;5032002;28;20195;-75
2022/10/04 01:03:17;;;;;;;10.67;6.43;;;-18.70;99.90;;;;;;5020277;28;20509;-69
2022/10/04 01:06:04;;;;;;;6.07;5.57;;;-17.30;99.90;;;;;;5036201;28;20262;-72
2022/10/04 01:08:43;;;;;;;7.63;6.13;;;-15.90;99.90;;;;;;5038706;28;20215;-70
2022/10/04 01:11:25;;;;;;;9.80;6.23;;;-16.70;99.90;;;;;;5033852;28;20226;-71
2022/10/04 01:13:56;;;;;;;13.70;6.77;;;-16.90;99.90;;;;;;5033325;28;20204;-72
2022/10/04 01:16:24;;;;;;;6.53;5.80;;;-16.60;99.90;;;;;;5045608;28;20177;-73
2022/10/04 01:18:50;;;;;;;5.93;5.37;;;-17.30;99.90;;;;;;5025258;28;20191;-70
2022/10/04 01:21:19;;;;;;;9.83;7.10;;;-16.70;99.90;;;;;;5030992;28;20188;-76
2022/10/04 01:23:48;;;;;;;7.20;6.50;;;-17.20;99.90;;;;;;5032639;28;20179;-71
2022/10/04 01:26:28;;;;;;;10.17;6.00;;;-15.70;99.90;;;;;;5037024;28;20186;-78
2022/10/04 01:28:58;;;;;;;10.43;6.73;;;-14.70;99.90;;;;;;5033287;28;20207;-69
2022/10/04 01:31:25;;;;;;;6.53;5.60;;;-15.70;99.90;;;;;;5043032;28;20219;-74
2022/10/04 01:33:53;;;;;;;6.93;6.23;;;-16.00;99.90;;;;;;5032067;28;20184;-78
2022/10/04 01:36:19;;;;;;;8.17;6.30;;;-16.00;99.90;;;;;;5034179;28;20216;-77
2022/10/04 01:38:45;;;;;;;5.83;5.23;;;-16.40;99.90;;;;;;5030887;28;20180;-70
2022/10/04 01:41:14;;;;;;;8.70;6.50;;;-15.70;99.90;;;;;;5021313;28;20241;-80
2022/10/04 01:43:42;;;;;;;8.23;5.83;;;-16.50;99.90;;;;;;5038034;28;20533;-72
2022/10/04 01:46:22;;;;;;;7.73;6.13;;;-15.80;99.90;;;;;;5037896;28;20527;-70
2022/10/04 01:48:48;;;;;;;8.07;6.33;;;-16.80;99.90;;;;;;5026278;28;20466;-78
2022/10/04 01:51:17;;;;;;;6.63;5.90;;;-17.80;99.90;;;;;;5025878;28;20195;-74
2022/10/04 01:54:01;;;;;;;9.40;5.67;;;-13.10;99.90;;;;;;5019893;28;20198;-71
2022/10/04 01:56:46;;;;;;;7.80;6.07;;;-16.30;99.90;;;;;;5030647;28;20182;-70
2022/10/04 01:59:27;;;;;;;9.87;5.93;;;-16.70;99.90;;;;;;5032643;28;20193;-74
2022/10/04 02:02:15;;;;;;;6.43;5.37;;;-16.50;99.90;;;;;;5036950;28;20201;-79
2022/10/04 02:04:42;;;;;;;6.70;5.83;;;-15.60;99.90;;;;;;5037305;28;20175;-76
2022/10/04 02:07:13;;;;;;;8.43;6.93;;;-15.90;99.90;;;;;;5028155;28;20198;-79
2022/10/04 02:09:42;;;;;;;6.93;6.37;;;-17.60;99.90;;;;;;5030119;28;20264;-82
2022/10/04 02:12:13;;;;;;;14.87;6.50;;;-17.80;99.90;;;;;;5037700;28;20201;-70
2022/10/04 02:14:47;;;;;;;7.90;6.30;;;-17.40;99.90;;;;;;5037082;28;20199;-69
2022/10/04 02:17:16;;;;;;;7.80;5.03;;;-17.20;99.90;;;;;;5029610;28;20184;-80
2022/10/04 02:19:43;;;;;;;13.73;6.90;;;-16.60;99.90;;;;;;5024344;28;20181;-79
2022/10/04 02:22:10;;;;;;;8.13;6.33;;;-17.50;99.90;;;;;;5018905;28;20205;-71
2022/10/04 02:24:40;;;;;;;7.53;5.67;;;-18.10;99.90;;;;;;5026014;28;20174;-70
2022/10/04 02:27:06;;;;;;;14.70;7.53;;;-17.50;99.90;;;;;;5021802;28;20484;-75
2022/10/04 02:29:32;;;;;;;7.67;5.67;;;-17.20;99.90;;;;;;5035666;28;20187;-76
2022/10/04 02:34:45;;;;;;;7.07;6.13;;;-17.20;99.90;;;;;;5019439;28;20196;-73
2022/10/04 02:37:14;;;;;;;10.43;4.80;;;-15.80;99.90;;;;;;5025007;28;20235;-72
2022/10/04 02:39:48;;;;;;;8.77;5.20;;;-17.80;99.90;;;;;;5030575;28;20183;-75
2022/10/04 02:42:59;;;;;;;14.57;6.73;;;-18.60;99.90;;;;;;5034144;28;20202;-76
2022/10/04 02:45:39;;;;;;;6.13;5.40;;;-18.00;99.90;;;;;;5028090;28;20501;-80
2022/10/04 02:48:34;;;;;;;7.93;5.57;;;-19.90;99.90;;;;;;5026587;28;20178;-77
2022/10/04 02:51:13;;;;;;;13.23;6.03;;;-19.40;99.90;;;;;;5032013;28;20235;-77
2022/10/04 02:53:59;;;;;;;7.90;5.20;;;-18.20;99.90;;;;;;5031234;28;20488;-76
2022/10/04 02:56:25;;;;;;;12.87;5.47;;;-16.50;99.90;;;;;;5032886;28;20177;-73
2022/10/04 02:58:53;;;;;;;8.47;5.83;;;-18.60;99.90;;;;;;5036470;28;20172;-68
2022/10/04 03:01:42;;;;;;;10.33;6.30;;;-18.10;99.90;;;;;;5035590;28;20192;-74
2022/10/04 03:04:13;;;;;;;8.97;6.90;;;-17.10;99.90;;;;;;5022762;28;20247;-80
2022/10/04 03:06:41;;;;;;;10.63;6.60;;;-17.10;99.90;;;;;;5025398;28;20181;-77
2022/10/04 03:09:07;;;;;;;10.03;6.53;;;-18.40;99.90;;;;;;5023011;28;20184;-79
2022/10/04 03:11:39;;;;;;;13.00;6.00;;;-17.80;99.90;;;;;;5035297;28;20196;-74
2022/10/04 03:14:27;;;;;;;6.83;5.93;;;-17.00;99.90;;;;;;5035727;28;20232;-74
2022/10/04 03:16:55;;;;;;;7.80;5.97;;;-15.50;99.90;;;;;;5025298;28;20526;-71
2022/10/04 03:19:23;;;;;;;5.97;5.37;;;-18.30;99.90;;;;;;5023925;28;20185;-71
2022/10/04 03:21:54;;;;;;;7.27;5.97;;;-17.40;99.90;;;;;;5030349;28;20296;-74
2022/10/04 03:24:45;;;;;;;11.43;5.70;;;-16.90;99.90;;;;;;5017863;28;20633;-76
2022/10/04 03:27:33;;;;;;;9.90;5.83;;;-15.70;99.90;;;;;;5030759;28;20288;-72
2022/10/04 03:30:00;;;;;;;6.57;5.97;;;-17.60;99.90;;;;;;5035868;28;20227;-71
2022/10/04 03:32:29;;;;;;;11.33;6.30;;;-19.00;99.90;;;;;;5036262;28;20185;-76
2022/10/04 03:35:01;;;;;;;10.00;5.87;;;-16.90;99.90;;;;;;5025477;28;20184;-71
2022/10/04 03:37:29;;;;;;;9.67;5.23;;;-15.70;99.90;;;;;;5043663;28;20276;-75
2022/10/04 03:39:57;;;;;;;7.00;6.00;;;-16.40;99.90;;;;;;5023341;28;20190;-72
2022/10/04 03:42:24;;;;;;;12.13;6.50;;;-17.70;99.90;;;;;;5028775;28;20295;-70
2022/10/04 03:44:53;;;;;;;14.17;6.97;;;-18.00;99.90;;;;;;5035701;28;20185;-78
2022/10/04 03:47:24;;;;;;;10.47;8.50;;;-17.20;99.90;;;;;;5031203;28;20179;-75
2022/10/04 03:49:51;;;;;;;9.80;7.50;;;-16.20;99.90;;;;;;5034444;28;20188;-73
2022/10/04 03:52:36;;;;;;;18.73;9.30;;;-15.10;99.90;;;;;;5035801;28;20276;-70
2022/10/04 03:55:05;;;;;;;13.07;9.03;;;-15.50;99.90;;;;;;5023683;28;20219;-70
2022/10/04 03:57:32;;;;;;;16.93;10.87;;;-15.50;99.90;;;;;;5035018;28;20188;-71
2022/10/04 03:59:59;;;;;;;16.00;10.87;;;-16.70;99.90;;;;;;5035513;28;20180;-70
2022/10/04 04:02:48;;;;;;;17.83;9.70;;;-18.60;99.90;;;;;;5029652;28;20648;-73
2022/10/04 04:05:36;;;;;;;15.00;11.03;;;-17.60;99.90;;;;;;5026096;28;20272;-72
2022/10/04 04:08:11;;;;;;;15.37;10.23;;;-18.00;99.90;;;;;;5029897;28;20184;-72
2022/10/04 04:10:41;;;;;;;16.40;9.97;;;-16.40;99.90;;;;;;5020599;28;20207;-72
2022/10/04 04:13:10;;;;;;;15.87;9.97;;;-15.00;99.90;;;;;;5025437;28;20182;-69
2022/10/04 04:15:40;;;;;;;15.93;10.50;;;-16.60;99.90;;;;;;5025359;28;20632;-69
2022/10/04 04:18:21;;;;;;;13.93;9.47;;;-17.90;99.90;;;;;;5030329;28;20196;-71
2022/10/04 04:20:50;;;;;;;16.60;9.60;;;-17.60;99.90;;;;;;5035689;28;20238;-76
2022/10/04 04:23:24;;;;;;;12.23;9.27;;;-18.40;99.90;;;;;;5018202;28;20208;-70
2022/10/04 04:25:58;;;;;;;14.93;10.53;;;-17.80;99.90;;;;;;5046717;28;20184;-71
2022/10/04 04:28:32;;;;;;;11.93;9.70;;;-18.20;99.90;;;;;;5028339;28;20186;-70
2022/10/04 04:31:22;;;;;;;14.37;9.63;;;-18.90;99.90;;;;;;5029794;28;20238;-69
2022/10/04 04:33:58;;;;;;;17.00;9.90;;;-20.30;99.90;;;;;;5031039;28;20194;-79
2022/10/04 04:36:25;;;;;;;10.80;9.37;;;-19.70;99.90;;;;;;5031864;28;20491;-70
2022/10/04 04:41:35;;;;;;;15.10;9.17;;;-19.60;99.90;;;;;;5035174;28;20562;-78
2022/10/04 04:44:02;;;;;;;12.77;9.57;;;-18.90;99.90;;;;;;5035374;28;20184;-71
2022/10/04 04:46:29;;;;;;;10.00;8.50;;;-19.20;99.90;;;;;;5035367;28;20177;-70
2022/10/04 04:49:03;;;;;;;13.70;9.00;;;-17.20;99.90;;;;;;5034102;28;20205;-75
2022/10/04 04:51:31;;;;;;;11.10;8.63;;;-17.20;99.90;;;;;;5032492;28;20190;-69
2022/10/04 04:53:57;;;;;;;14.17;9.00;;;-17.50;99.90;;;;;;5026296;28;20179;-75
2022/10/04 04:56:27;;;;;;;11.40;8.83;;;-17.90;99.90;;;;;;5024084;28;20217;-76
2022/10/04 04:58:56;;;;;;;15.87;10.57;;;-17.10;99.90;;;;;;5017906;28;20187;-70
2022/10/04 05:01:41;;;;;;;11.87;9.00;;;-17.90;99.90;;;;;;5027128;28;20228;-69
2022/10/04 05:04:11;;;;;;;15.90;10.07;;;-17.40;99.90;;;;;;5031265;28;20246;-71
2022/10/04 05:06:39;;;;;;;14.93;10.27;;;-16.40;99.90;;;;;;5024074;28;20548;-76
2022/10/04 05:09:20;;;;;;;12.70;9.83;;;-17.30;99.90;;;;;;5019336;28;20189;-80
2022/10/04 05:11:47;;;;;;;12.30;9.17;;;-16.30;99.90;;;;;;5028226;28;20208;-77
2022/10/04 05:14:14;;;;;;;14.93;9.93;;;-16.50;99.90;;;;;;5025246;28;20209;-77
2022/10/04 05:16:43;;;;;;;17.00;8.93;;;-16.40;99.90;;;;;;5033850;28;20200;-73
2022/10/04 05:19:20;;;;;;;22.07;9.43;;;-16.10;99.90;;;;;;5034910;28;20266;-75
2022/10/04 05:21:47;;;;;;;14.77;8.97;;;-16.40;99.90;;;;;;5027367;28;20208;-70
2022/10/04 05:24:36;;;;;;;10.53;8.30;;;-16.70;99.90;;;;;;5030159;28;20554;-76
2022/10/04 05:27:15;;;;;;;14.80;9.60;;;-15.70;99.90;;;;;;5021147;28;20181;-71
2022/10/04 05:29:54;;;;;;;12.83;7.87;;;-14.80;99.90;;;;;;5036264;28;20198;-83
2022/10/04 05:32:46;;;;;;;16.47;8.87;;;-15.40;99.90;;;;;;5038446;28;20200;-75
2022/10/04 05:35:21;;;;;;;15.03;8.20;;;-15.70;99.90;;;;;;5020401;28;20193;-69
2022/10/04 05:38:09;;;;;;;13.77;9.00;;;-16.00;99.90;;;;;;5030614;28;20181;-71
2022/10/04 05:40:49;;;;;;;13.63;7.57;;;-16.60;99.90;;;;;;5035736;28;20212;-75
2022/10/04 05:43:44;;;;;;;10.60;7.97;;;-16.20;99.90;;;;;;5026142;28;20209;-73
2022/10/04 05:46:13;;;;;;;21.43;8.77;;;-15.60;99.90;;;;;;5035420;28;20656;-74
2022/10/04 05:48:42;;;;;;;16.37;8.20;;;-16.40;99.90;;;;;;5037840;28;20544;-74
2022/10/04 05:51:49;;;;;;;16.20;9.47;;;-17.40;99.90;;;;;;5031325;28;20202;-73
2022/10/04 05:54:23;;;;;;;9.73;7.00;;;-17.90;99.90;;;;;;5031731;28;20230;-70
2022/10/04 05:56:49;;;;;;;15.53;7.90;;;-16.70;99.90;;;;;;5038840;28;20537;-76
2022/10/04 05:59:30;;;;;;;13.80;7.83;;;-18.20;99.90;;;;;;5036938;28;20192;-71
2022/10/04 06:02:30;;;;;;;12.93;7.47;;;-17.50;99.90;;;;;;5029835;28;20212;-72
2022/10/04 06:05:14;;;;;;;22.40;9.00;;;-16.40;99.90;;;;;;5024430;28;20204;-69
2022/10/04 06:07:45;;;;;;;13.47;7.93;;;-17.20;99.90;;;;;;5031076;28;20193;-69
2022/10/04 06:10:32;;;;;;;13.37;8.40;;;-17.90;99.90;;;;;;5029565;28;20556;-71
2022/10/04 06:13:32;;;;;;;16.07;8.00;;;-17.50;99.90;;;;;;5037749;28;20234;-69
2022/10/04 06:16:28;;;;;;;9.20;7.73;;;-17.40;99.90;;;;;;5037377;28;20894;-73
2022/10/04 06:19:11;;;;;;;17.00;8.57;;;-16.70;99.90;;;;;;5022797;28;20197;-72
2022/10/04 06:21:50;;;;;;;12.97;8.30;;;-18.50;99.90;;;;;;5032884;28;20215;-74
2022/10/04 06:24:26;;;;;;;12.40;8.27;;;-17.90;99.90;;;;;;5032502;28;20188;-70
2022/10/04 06:27:15;;;;;;;11.63;8.27;;;-18.00;99.90;;;;;;5026388;28;20192;-68
2022/10/04 06:29:59;;;;;;;16.03;8.57;;;-17.20;99.90;;;;;;5013842;28;20203;-69
2022/10/04 06:32:55;;;;;;;11.00;7.27;;;-16.70;99.90;;;;;;5024191;28;20196;-70
2022/10/04 06:35:38;;;;;;;17.47;8.13;;;-16.50;99.90;;;;;;5026217;28;20185;-69
2022/10/04 06:38:29;;;;;;;13.20;8.83;;;-16.70;99.90;;;;;;5052211;28;20186;-69
2022/10/04 06:41:15;;;;;;;11.97;7.77;;;-15.80;99.90;;;;;;5031485;28;20193;-70
2022/10/04 06:44:01;;;;;;;10.60;6.83;;;-16.60;99.90;;;;;;5029918;28;20193;-70
2022/10/04 06:46:45;;;;;;;9.67;7.60;;;-19.50;99.90;;;;;;5027094;28;20666;-71
2022/10/04 06:49:17;;;;;;;12.73;7.40;;;-17.80;99.90;;;;;;5024805;28;20588;-69
2022/10/04 06:52:07;;;;;;;10.63;6.53;;;-16.40;99.90;;;;;;5025600;28;20285;-67
2022/10/04 06:54:42;;;;;;;10.17;7.50;;;-17.00;99.90;;;;;;5036526;28;20222;-69
2022/10/04 06:57:21;;;;;;;19.20;9.10;;;-15.60;99.90;;;;;;5027182;28;20217;-71
2022/10/04 06:59:55;;;;;;;11.93;8.27;;;-16.90;99.90;;;;;;5031195;28;20194;-70
2022/10/04 07:02:48;;;;;;;16.80;8.37;;;-17.90;99.90;;;;;;5036648;28;20353;-71
2022/10/04 07:05:21;;;;;;;16.80;6.70;;;-16.70;99.90;;;;;;5045003;28;20559;-69
2022/10/04 07:08:05;;;;;;;13.80;8.13;;;-15.20;99.90;;;;;;5031110;28;20182;-74
2022/10/04 07:11:01;;;;;;;15.47;7.00;;;-17.30;99.90;;;;;;5036263;28;20614;-68
2022/10/04 07:13:26;;;;;;;12.50;7.80;;;-18.70;99.90;;;;;;5030873;28;20225;-70
2022/10/04 07:16:20;;;;;;;17.07;9.13;;;-15.40;99.90;;;;;;5029971;28;20213;-69
2022/10/04 07:19:12;;;;;;;11.87;8.23;;;-16.00;99.90;;;;;;5030036;28;20177;-70
2022/10/04 07:21:54;;;;;;;11.70;8.27;;;-17.40;99.90;;;;;;5029009;28;20245;-68
2022/10/04 07:24:37;;;;;;;11.73;8.13;;;-17.20;99.90;;;;;;5031871;28;21149;-68
2022/10/04 07:27:08;;;;;;;17.67;9.70;;;-17.80;99.90;;;;;;5020242;28;20239;-69
2022/10/04 07:29:40;;;;;;;14.20;9.67;;;-17.20;99.90;;;;;;5028036;28;20194;-73
2022/10/04 07:32:16;;;;;;;14.43;9.20;;;-16.10;99.90;;;;;;5027024;28;20484;-77
2022/10/04 07:34:58;;;;;;;13.83;9.50;;;-16.40;99.90;;;;;;5032462;28;20188;-69
2022/10/04 07:37:29;;;;;;;11.53;8.53;;;-15.00;99.90;;;;;;5027113;28;20186;-70
2022/10/04 07:40:17;;;;;;;11.30;8.17;;;-16.60;99.90;;;;;;5021761;28;20188;-71
2022/10/04 07:42:43;;;;;;;15.07;8.57;;;-15.60;99.90;;;;;;5031945;28;20242;-69
2022/10/04 07:45:31;;;;;;;11.23;7.73;;;-15.90;99.90;;;;;;5051618;28;20618;-77
2022/10/04 07:48:21;;;;;;;12.93;8.50;;;-16.90;99.90;;;;;;5026419;28;20494;-76
2022/10/04 07:50:53;;;;;;;17.23;9.60;;;-16.30;99.90;;;;;;5036251;28;20180;-76
2022/10/04 07:53:33;;;;;;;11.77;7.90;;;-16.70;99.90;;;;;;5035878;28;20576;-78
2022/10/04 07:56:10;;;;;;;11.53;8.23;;;-17.90;99.90;;;;;;5025121;28;20235;-77
2022/10/04 07:58:40;;;;;;;18.27;7.47;;;-18.50;99.90;;;;;;5024482;28;20301;-77
2022/10/04 08:01:33;;;;;;;12.20;8.87;;;-19.90;99.90;;;;;;5044200;28;20499;-79
2022/10/04 08:04:21;;;;;;;15.93;8.07;;;-19.90;99.90;;;;;;5032190;28;20594;-76
2022/10/04 08:07:04;;;;;;;24.27;9.07;;;-19.30;99.90;;;;;;5017755;28;20176;-79
2022/10/04 08:09:57;;;;;;;12.87;8.33;;;-18.10;99.90;;;;;;5017687;28;20303;-79
2022/10/04 08:13:10;;;;;;;16.90;8.53;;;-15.50;99.90;;;;;;5030733;28;20192;-77
2022/10/04 08:15:41;;;;;;;13.33;8.50;;;-21.40;99.90;;;;;;5030527;28;20220;-73
2022/10/04 08:18:13;;;;;;;10.33;7.53;;;-19.80;99.90;;;;;;5028030;28;20600;-76
2022/10/04 08:20:53;;;;;;;16.97;7.87;;;-18.40;99.90;;;;;;5025467;28;20185;-76
2022/10/04 08:23:51;;;;;;;15.77;7.70;;;-16.90;99.90;;;;;;5026759;28;20204;-79
2022/10/04 08:26:55;;;;;;;18.17;8.47;;;-19.90;99.90;;;;;;5018244;28;20193;-80
2022/10/04 08:29:43;;;;;;;12.13;6.83;;;-20.40;99.90;;;;;;5034131;28;20192;-82
2022/10/04 08:32:28;;;;;;;29.57;10.87;;;-19.40;99.90;;;;;;5035410;28;20466;-74
2022/10/04 08:35:06;;;;;;;17.10;8.30;;;-19.40;99.90;;;;;;5038966;28;20533;-75
2022/10/04 08:37:44;;;;;;;17.50;7.33;;;-20.40;99.90;;;;;;5026946;28;20593;-78
2022/10/04 08:40:35;;;;;;;28.90;8.50;;;-18.60;99.90;;;;;;5024567;28;20185;-76
2022/10/04 08:43:24;;;;;;;10.43;7.27;;;-17.90;99.90;;;;;;5041110;28;20262;-76
2022/10/04 08:46:20;;;;;;;14.90;7.37;;;-17.80;99.90;;;;;;5034983;28;20310;-75
2022/10/04 08:49:10;;;;;;;10.47;7.77;;;-19.80;99.90;;;;;;5026973;28;20181;-76
2022/10/04 08:52:14;;;;;;;11.60;7.50;;;-22.90;99.90;;;;;;5029102;28;20183;-81
2022/10/04 08:54:59;;;;;;;11.93;6.63;;;-21.00;99.90;;;;;;5017354;28;20230;-78
2022/10/04 08:57:42;;;;;;;10.17;7.27;;;-24.80;99.90;;;;;;5028026;28;20177;-76
2022/10/04 09:00:47;;;;;;;7.90;6.03;;;-23.00;99.90;;;;;;5031723;28;20221;-77
2022/10/04 09:03:41;;;;;;;10.40;6.57;;;-26.30;99.90;;;;;;5021085;28;20556;-78
2022/10/04 09:06:15;;;;;;;12.93;7.13;;;-21.30;99.90;;;;;;5037609;28;20186;-77
2022/10/04 09:09:06;;;;;;;13.00;7.53;;;-16.80;99.90;;;;;;5030010;28;20261;-80
2022/10/04 09:12:03;;;;;;;12.90;7.13;;;-26.70;99.90;;;;;;5030515;28;20184;-78
2022/10/04 09:14:45;;;;;;;17.43;7.90;;;-26.30;99.90;;;;;;5026495;28;20212;-77
2022/10/04 09:17:23;;;;;;;12.07;7.00;;;-24.00;99.90;;;;;;5038538;28;20180;-76
2022/10/04 09:20:08;;;;;;;14.67;6.20;;;-20.90;99.90;;;;;;5029994;28;20238;-74
2022/10/04 09:22:48;;;;;;;10.60;6.27;;;-21.30;99.90;;;;;;5035528;28;20211;-76
2022/10/04 09:25:25;;;;;;;14.27;6.83;;;-23.10;99.90;;;;;;5030912;28;20276;-79
2022/10/04 09:28:25;;;;;;;13.83;5.97;;;-21.60;99.90;;;;;;5026622;28;20189;-78
2022/10/04 09:31:26;;;;;;;10.33;5.97;;;-21.60;99.90;;;;;;5053140;28;20184;-74
2022/10/04 09:34:22;;;;;;;6.83;6.17;;;-27.10;99.90;;;;;;5050359;28;20303;-75
2022/10/04 09:37:29;;;;;;;10.73;6.00;;;-28.50;99.90;;;;;;5032117;28;20180;-70
2022/10/04 09:40:07;;;;;;;16.37;7.10;;;-28.60;99.90;;;;;;5030126;28;20198;-78
2022/10/04 09:42:53;;;;;;;8.60;6.70;;;-29.00;99.90;;;;;;5035520;28;20204;-74
2022/10/04 09:45:44;;;;;;;8.70;5.40;;;-23.50;99.90;;;;;;5034115;28;20181;-77
2022/10/04 09:48:24;;;;;;;8.30;6.23;;;-23.30;99.90;;;;;;5043753;28;20605;-76
2022/10/04 09:51:06;;;;;;;10.90;6.53;;;-26.60;99.90;;;;;;5020593;28;20193;-71
2022/10/04 09:53:32;;;;;;;6.77;4.83;;;-20.40;99.90;;;;;;5040628;28;20189;-73
2022/10/04 09:55:58;;;;;;;10.37;5.90;;;-22.10;99.90;;;;;;5038037;28;20189;-79
2022/10/04 09:58:45;;;;;;;10.13;5.73;;;-26.90;99.90;;;;;;5037532;28;20634;-73
2022/10/04 10:01:49;;;;;;;18.13;5.67;;;-28.20;99.90;;;;;;5030673;28;20287;-78
2022/10/04 10:04:36;;;;;;;10.67;5.53;;;-29.80;99.90;;;;;;5033779;28;20235;-74
2022/10/04 10:07:19;;;;;;;5.30;4.80;;;-28.60;99.90;;;;;;5025262;28;20338;-78
2022/10/04 10:13:39;;;;;;;8.63;5.07;;;-28.70;99.90;;;;;;5025934;28;20277;-78
2022/10/04 10:16:40;;;;;;;6.53;4.23;;;-30.30;99.90;;;;;;5031318;28;20181;-77
2022/10/04 10:19:28;;;;;;;9.77;4.70;;;-23.90;99.90;;;;;;5035725;28;21056;-75
2022/10/04 10:22:12;;;;;;;8.90;5.13;;;-29.70;99.90;;;;;;5031158;28;20207;-73
2022/10/04 10:25:23;;;;;;;9.53;5.37;;;-26.10;99.90;;;;;;5026461;28;20177;-77
2022/10/04 10:28:18;;;;;;;8.27;5.63;;;-27.20;99.90;;;;;;5024725;28;20287;-75
2022/10/04 10:31:07;;;;;;;6.97;4.43;;;-29.40;99.90;;;;;;5011011;28;20598;-72
2022/10/04 10:34:04;;;;;;;10.07;4.83;;;-29.80;99.90;;;;;;5035005;28;20648;-77
2022/10/04 10:36:59;;;;;;;5.37;4.47;;;-31.00;99.90;;;;;;5043942;28;20527;-68
2022/10/04 10:39:46;;;;;;;16.30;4.90;;;-29.50;99.90;;;;;;5029861;28;20177;-68
2022/10/04 10:42:26;;;;;;;7.80;5.13;;;-27.60;99.90;;;;;;5025132;28;20563;-72
2022/10/04 10:45:16;;;;;;;9.87;4.67;;;-40.00;99.90;;;;;;5032575;28;20204;-77
2022/10/04 10:48:08;;;;;;;7.43;5.40;;;-40.00;99.90;;;;;;5036684;28;20175;-71
2022/10/04 10:51:19;;;;;;;7.63;5.27;;;-33.60;99.90;;;;;;5032131;28;20180;-77
2022/10/04 10:54:15;;;;;;;7.10;3.47;;;-32.90;99.90;;;;;;5026733;28;20192;-75
2022/10/04 10:56:56;;;;;;;5.60;3.83;;;-32.80;99.90;;;;;;5017810;28;20569;-69
2022/10/04 10:59:54;;;;;;;8.43;4.00;;;16.50;99.90;;;;;;5034257;28;20251;-69
2022/10/04 11:02:53;;;;;;;4.97;3.37;;;16.70;99.90;;;;;;5036224;28;20297;-71
2022/10/04 11:05:41;;;;;;;5.43;4.20;;;16.70;99.90;;;;;;5036066;28;20234;-71
2022/10/04 11:08:28;;;;;;;5.93;4.33;;;16.00;99.90;;;;;;5028664;28;20173;-68
2022/10/04 11:11:17;;;;;;;8.97;3.87;;;-34.50;99.90;;;;;;5029586;28;20173;-69
2022/10/04 11:13:47;;;;;;;7.53;3.53;;;-34.60;99.90;;;;;;5024113;28;20213;-69
2022/10/04 11:16:33;;;;;;;5.23;4.27;;;-38.40;99.90;;;;;;5026647;28;20179;-68
2022/10/04 11:19:20;;;;;;;4.07;3.10;;;-34.00;99.90;;;;;;5026103;28;20172;-68
2022/10/04 11:22:07;;;;;;;4.40;3.73;;;-33.10;99.90;;;;;;5033207;28;20234;-70
2022/10/04 11:25:15;;;;;;;4.27;2.77;;;-35.60;99.90;;;;;;5028208;28;20580;-69
2022/10/04 11:27:44;;;;;;;5.77;4.30;;;-35.50;99.90;;;;;;5041964;28;20269;-68
2022/10/04 11:30:23;;;;;;;5.90;3.67;;;-40.00;99.90;;;;;;5031676;28;20208;-69
2022/10/04 11:33:27;;;;;;;3.17;2.90;;;-36.60;99.90;;;;;;5035393;28;20276;-70
2022/10/04 11:35:56;;;;;;;3.67;2.60;;;-40.00;96.30;;;;;;5011727;28;20192;-70
2022/10/04 11:38:48;;;;;;;4.10;2.70;;;-40.00;96.60;;;;;;5036302;28;20191;-71
2022/10/04 11:41:19;;;;;;;4.33;3.37;;;-40.00;92.00;;;;;;5032554;28;20212;-74
2022/10/04 11:44:11;;;;;;;6.50;3.00;;;-40.00;88.30;;;;;;5032671;28;20560;-70
2022/10/04 11:46:50;;;;;;;9.57;3.53;;;-40.00;88.00;;;;;;5014825;28;20185;-69
2022/10/04 11:49:36;;;;;;;3.80;2.30;;;20.90;99.90;;;;;;5031693;28;20173;-68
2022/10/04 11:52:40;;;;;;;4.03;2.90;;;20.90;99.90;;;;;;5031624;28;20184;-77
2022/10/04 11:55:38;;;;;;;7.10;2.60;;;-40.00;87.30;;;;;;5037385;28;20192;-68
2022/10/04 11:58:30;;;;;;;4.43;2.30;;;-40.00;83.30;;;;;;5020090;28;20192;-71
2022/10/04 12:01:29;;;;;;;4.10;2.90;;;-40.00;82.80;;;;;;5026962;28;20613;-68
2022/10/04 12:04:27;;;;;;;2.53;2.33;;;22.00;99.90;;;;;;5022593;28;20185;-76
2022/10/04 12:07:30;;;;;;;5.10;3.23;;;22.20;99.90;;;;;;5028112;28;20184;-67
2022/10/04 12:10:28;;;;;;;2.30;2.20;;;18.90;99.90;;;;;;5027798;28;20181;-70
2022/10/04 12:13:13;;;;;;;4.50;2.27;;;18.30;99.90;;;;;;5029542;28;20580;-68
2022/10/04 12:16:00;;;;;;;5.70;2.50;;;18.90;99.90;;;;;;5031890;28;20219;-70
2022/10/04 12:18:27;;;;;;;2.67;2.30;;;22.30;99.90;;;;;;5047203;28;20217;-69
2022/10/04 12:21:10;;;;;;;7.23;2.70;;;22.40;99.90;;;;;;5031787;28;20171;-73
2022/10/04 12:23:54;;;;;;;2.83;2.23;;;22.50;99.90;;;;;;5034178;28;20204;-68
2022/10/04 12:26:42;;;;;;;14.07;3.10;;;22.70;99.90;;;;;;5029723;28;20262;-67
2022/10/04 12:29:32;;;;;;;2.67;2.27;;;22.60;99.90;;;;;;5031099;28;20452;-69
2022/10/04 12:32:04;;;;;;;5.13;3.03;;;22.30;99.90;;;;;;5020175;28;20687;-68
2022/10/04 12:34:44;;;;;;;7.17;3.37;;;22.30;99.90;;;;;;5032055;28;20193;-71
2022/10/04 12:37:22;;;;;;;4.83;3.17;;;22.50;99.90;;;;;;5039346;28;20592;-68
2022/10/04 12:40:08;;;;;;;4.20;2.83;;;22.50;99.90;;;;;;5036833;28;20203;-71
2022/10/04 12:43:15;;;;;;;5.00;3.13;;;22.70;99.90;;;;;;5035474;28;20690;-68
2022/10/04 12:46:32;;;;;;;4.27;2.67;;;19.60;99.90;;;;;;5032576;28;20185;-74
2022/10/04 12:49:22;;;;;;;4.27;2.80;;;-40.00;73.90;;;;;;5024833;28;20596;-67
2022/10/04 12:52:08;;;;;;;7.27;2.37;;;-40.00;69.20;;;;;;5035685;28;20256;-71
2022/10/04 12:54:42;;;;;;;6.63;2.30;;;-40.00;67.40;;;;;;5027164;28;20193;-75
2022/10/04 12:57:07;;;;;;;7.37;2.70;;;-40.00;66.20;;;;;;5032081;28;20256;-75
2022/10/04 13:00:11;;;;;;;4.53;2.83;;;-40.00;68.80;;;;;;5047915;28;20607;-68
2022/10/04 13:03:04;;;;;;;4.07;2.37;;;-40.00;72.80;;;;;;5019468;28;20287;-74
2022/10/04 13:05:38;;;;;;;2.90;2.60;;;-40.00;67.70;;;;;;5026394;28;20205;-73
2022/10/04 13:08:29;;;;;;;2.23;2.03;;;-40.00;70.00;;;;;;5049901;28;20266;-80
2022/10/04 13:11:27;;;;;;;3.70;2.53;;;-40.00;71.00;;;;;;5038141;28;20177;-75
2022/10/04 13:14:26;;;;;;;3.17;2.30;;;-40.00;67.80;;;;;;5019041;28;20574;-77
2022/10/04 13:16:52;;;;;;;3.90;2.40;;;-40.00;65.50;;;;;;5035800;28;20231;-70
2022/10/04 13:19:33;;;;;;;5.57;2.13;;;-40.00;62.60;;;;;;5031994;28;20184;-67
2022/10/04 13:22:15;;;;;;;9.37;3.50;;;-40.00;62.40;;;;;;5027742;28;20188;-69
2022/10/04 13:24:59;;;;;;;5.50;2.20;;;-40.00;60.50;;;;;;5033996;28;20258;-67
2022/10/04 13:27:53;;;;;;;3.43;2.20;;;-40.00;59.10;;;;;;5034745;28;20176;-72
2022/10/04 13:30:27;;;;;;;4.90;2.70;;;-40.00;56.70;;;;;;5033836;28;20456;-73
2022/10/04 13:33:15;;;;;;;5.20;2.57;;;-40.00;57.50;;;;;;5038327;28;20244;-69
2022/10/04 13:35:56;;;;;;;3.67;2.53;;;-40.00;58.40;;;;;;5034317;28;20185;-69
2022/10/04 13:38:48;;;;;;;9.60;2.80;;;-40.00;58.60;;;;;;5020877;28;20307;-69
2022/10/04 13:41:41;;;;;;;2.80;2.60;;;-40.00;56.60;;;;;;5034705;28;20604;-71
2022/10/04 13:44:16;;;;;;;3.33;1.90;;;-40.00;56.80;;;;;;5031958;28;20181;-69
2022/10/04 13:46:57;;;;;;;5.47;3.20;;;-40.00;56.30;;;;;;5025110;28;20173;-69
2022/10/04 13:49:27;;;;;;;3.77;2.77;;;-40.00;57.80;;;;;;5028757;28;20661;-68
2022/10/04 13:58:10;;;;;;;6.30;2.73;;;-40.00;57.10;;;;;;5023541;28;20235;-67
2022/10/04 14:00:45;;;;;;;10.80;3.67;;;-40.00;59.40;;;;;;5025128;28;20251;-68